Time;durP1;ratioP1;P1;durP2;ratioP2;P2;SDS_P1;SDS_P2;PMS_P1;PMS_P2;Temp;Humidity;BMP_temperature;BMP_pressure;BME280_temperature;BME280_humidity;BME280_pressure;Samples;Min_cycle;Max_cycle;Signal;HPM_P1;HPM_P2
2023/01/10 00:00:08;;;;;;;;;;;7.50;99.00;;;;;;5023248;28;19936;-78
2023/01/10 00:02:34;;;;;;;;;;;7.50;99.00;;;;;;5017563;28;19929;-78
2023/01/10 00:05:02;;;;;;;;;;;7.50;99.00;;;;;;5020105;28;19929;-78
2023/01/10 00:07:29;;;;;;;;;;;7.50;98.90;;;;;;5016701;28;19929;-78
2023/01/10 00:09:55;;;;;;;;;;;7.50;98.90;;;;;;5023515;28;19983;-77
2023/01/10 00:15:06;;;;;;;;;;;7.40;98.90;;;;;;5021168;28;19987;-78
2023/01/10 00:17:33;;;;;;;;;;;7.40;98.90;;;;;;5019266;28;20415;-78
2023/01/10 00:19:59;;;;;;;;;;;7.50;99.00;;;;;;5021217;28;20403;-77
2023/01/10 00:22:27;;;;;;;;;;;7.40;99.00;;;;;;5023236;28;19936;-78
2023/01/10 00:24:54;;;;;;;;;;;7.40;99.30;;;;;;5018105;28;19936;-78
2023/01/10 00:27:22;;;;;;;;;;;7.40;99.00;;;;;;5021577;28;19940;-78
2023/01/10 00:29:50;;;;;;;;;;;7.40;99.00;;;;;;5020508;28;20394;-78
2023/01/10 00:32:17;;;;;;;;;;;7.40;99.10;;;;;;5013704;28;20016;-79
2023/01/10 00:34:44;;;;;;;;;;;7.40;99.10;;;;;;5017415;28;20007;-78
2023/01/10 00:37:10;;;;;;;;;;;7.40;99.00;;;;;;5019158;28;19933;-78
2023/01/10 00:39:38;;;;;;;;;;;7.40;99.00;;;;;;5016246;28;19933;-77
2023/01/10 00:44:49;;;;;;;;;;;7.40;99.10;;;;;;5019476;28;20051;-78
2023/01/10 00:47:15;;;;;;;;;;;7.40;99.10;;;;;;5017199;28;19929;-78
2023/01/10 00:49:42;;;;;;;;;;;7.40;99.10;;;;;;5019330;28;19925;-78
2023/01/10 00:52:09;;;;;;;;;;;7.40;99.10;;;;;;5015202;28;19933;-77
2023/01/10 00:54:35;;;;;;;;;;;7.40;99.10;;;;;;5017994;28;19929;-78
2023/01/10 00:57:03;;;;;;;;;;;7.30;99.10;;;;;;5017330;28;19937;-77
2023/01/10 00:59:30;;;;;;;;;;;7.30;99.10;;;;;;5016679;28;19955;-78
2023/01/10 01:01:56;;;;;;;;;;;7.30;99.10;;;;;;5019731;28;20426;-78
2023/01/10 01:04:23;;;;;;;;;;;7.30;99.10;;;;;;5023416;28;19944;-78
2023/01/10 01:06:50;;;;;;;;;;;7.30;99.10;;;;;;5017642;28;20406;-78
2023/01/10 01:09:16;;;;;;;;;;;7.30;99.00;;;;;;5017748;28;19929;-78
2023/01/10 01:11:43;;;;;;;;;;;7.30;99.00;;;;;;5017269;28;19937;-78
2023/01/10 01:14:11;;;;;;;;;;;7.30;99.00;;;;;;5020688;28;19937;-78
2023/01/10 01:16:37;;;;;;;;;;;7.30;99.10;;;;;;5017816;28;19973;-79
2023/01/10 01:19:04;;;;;;;;;;;7.30;99.00;;;;;;5017738;28;20377;-79
2023/01/10 01:21:30;;;;;;;;;;;7.30;99.40;;;;;;5019873;28;19937;-78
2023/01/10 01:23:57;;;;;;;;;;;7.30;99.10;;;;;;5019296;28;19980;-78
2023/01/10 01:26:23;;;;;;;;;;;7.30;99.10;;;;;;5014428;28;19933;-78
2023/01/10 01:28:50;;;;;;;;;;;7.20;99.10;;;;;;5021100;28;21358;-78
2023/01/10 01:31:18;;;;;;;;;;;7.30;99.10;;;;;;5014415;28;19941;-78
2023/01/10 01:33:45;;;;;;;;;;;7.30;99.10;;;;;;5019893;28;20014;-78
2023/01/10 01:36:12;;;;;;;;;;;7.20;99.20;;;;;;5015343;28;19929;-78
2023/01/10 01:38:39;;;;;;;;;;;7.20;99.20;;;;;;5018929;28;20434;-78
2023/01/10 01:41:55;;;;;;;;;;;7.30;99.20;;;;;;5015715;28;20450;-78
2023/01/10 01:43:59;;;;;;;;;;;7.20;99.20;;;;;;5018163;28;20387;-78
2023/01/10 01:46:27;;;;;;;;;;;7.20;99.20;;;;;;5015627;28;19940;-79
2023/01/10 01:48:54;;;;;;;;;;;7.20;99.20;;;;;;5014753;28;19986;-78
2023/01/10 01:51:24;;;;;;;;;;;7.20;99.20;;;;;;5021580;28;19976;-77
2023/01/10 01:53:52;;;;;;;;;;;7.20;99.20;;;;;;5021190;28;19940;-76
2023/01/10 01:56:21;;;;;;;;;;;7.20;99.20;;;;;;5022171;28;19936;-77
2023/01/10 01:58:49;;;;;;;;;;;7.20;99.20;;;;;;5017206;28;20003;-77
2023/01/10 02:01:16;;;;;;;;;;;7.20;99.20;;;;;;5019377;28;19944;-78
2023/01/10 02:03:47;;;;;;;;;;;7.20;99.20;;;;;;5021654;28;19933;-77
2023/01/10 02:06:14;;;;;;;;;;;7.10;99.10;;;;;;5019539;28;19933;-78
2023/01/10 02:08:44;;;;;;;;;;;7.10;99.10;;;;;;5015815;28;19995;-76
2023/01/10 02:11:11;;;;;;;;;;;7.10;99.10;;;;;;5016880;28;19932;-78
2023/01/10 02:13:39;;;;;;;;;;;7.10;99.10;;;;;;5018134;28;19933;-77
2023/01/10 02:16:06;;;;;;;;;;;7.10;99.00;;;;;;5017966;28;19929;-78
2023/01/10 02:18:33;;;;;;;;;;;7.10;99.00;;;;;;5016993;28;19933;-78
2023/01/10 02:21:11;;;;;;;;;;;7.10;98.90;;;;;;5018680;28;19983;-77
2023/01/10 02:23:49;;;;;;;;;;;7.10;98.90;;;;;;5017531;28;19929;-78
2023/01/10 02:26:25;;;;;;;;;;;7.10;98.90;;;;;;5019680;28;19936;-78
2023/01/10 02:29:03;;;;;;;;;;;7.10;98.90;;;;;;5018833;28;19942;-78
2023/01/10 02:31:42;;;;;;;;;;;7.00;98.80;;;;;;5014785;28;19933;-78
2023/01/10 02:34:13;;;;;;;;;;;7.00;98.90;;;;;;5018989;28;20040;-77
2023/01/10 02:36:44;;;;;;;;;;;7.00;98.90;;;;;;5014704;28;19929;-78
2023/01/10 02:39:12;;;;;;;;;;;7.00;98.80;;;;;;5017106;28;19925;-77
2023/01/10 02:41:41;;;;;;;;;;;7.00;98.80;;;;;;5014574;28;19940;-78
2023/01/10 02:44:10;;;;;;;;;;;7.00;98.80;;;;;;5020008;28;20413;-77
2023/01/10 02:46:38;;;;;;;;;;;7.00;98.70;;;;;;5006836;28;20369;-78
2023/01/10 02:49:05;;;;;;;;;;;7.00;98.70;;;;;;5018247;28;19929;-78
2023/01/10 02:51:33;;;;;;;;;;;7.00;98.70;;;;;;5017300;28;19952;-79
2023/01/10 02:54:01;;;;;;;;;;;6.90;98.60;;;;;;5017141;28;20020;-77
2023/01/10 02:56:44;;;;;;;;;;;7.00;98.60;;;;;;5025139;28;19929;-78
2023/01/10 02:59:26;;;;;;;;;;;7.00;98.70;;;;;;5018758;28;19978;-77
2023/01/10 03:01:57;;;;;;;;;;;6.90;98.70;;;;;;5017373;28;19937;-79
2023/01/10 03:04:25;;;;;;;;;;;7.00;98.70;;;;;;5023727;28;19933;-78
2023/01/10 03:06:58;;;;;;;;;;;6.90;98.60;;;;;;5022321;28;19980;-77
2023/01/10 03:09:28;;;;;;;;;;;6.90;98.50;;;;;;5021178;28;19934;-77
2023/01/10 03:12:01;;;;;;;;;;;6.90;98.50;;;;;;5019882;28;19936;-77
2023/01/10 03:14:28;;;;;;;;;;;7.00;98.60;;;;;;5019173;28;20348;-77
2023/01/10 03:16:57;;;;;;;;;;;6.90;98.60;;;;;;5021127;28;19929;-77
2023/01/10 03:19:26;;;;;;;;;;;6.90;98.60;;;;;;5023660;28;19933;-76
2023/01/10 03:21:56;;;;;;;;;;;6.90;98.60;;;;;;5019671;28;19991;-77
2023/01/10 03:24:26;;;;;;;;;;;6.90;98.60;;;;;;5018315;28;19929;-77
2023/01/10 03:26:55;;;;;;;;;;;6.90;98.60;;;;;;5018774;28;19929;-78
2023/01/10 03:29:24;;;;;;;;;;;6.90;98.60;;;;;;5016400;28;20015;-78
2023/01/10 03:31:52;;;;;;;;;;;6.90;98.50;;;;;;5020212;28;19982;-78
2023/01/10 03:34:19;;;;;;;;;;;6.90;98.60;;;;;;5019384;28;20677;-79
2023/01/10 03:36:48;;;;;;;;;;;6.90;98.60;;;;;;5020977;28;19940;-77
2023/01/10 03:39:19;;;;;;;;;;;6.90;98.50;;;;;;5019367;28;19975;-78
2023/01/10 03:41:48;;;;;;;;;;;6.80;98.50;;;;;;5019743;28;19952;-78
2023/01/10 03:47:05;;;;;;;;;;;6.80;98.50;;;;;;5018261;28;19932;-78
2023/01/10 03:49:33;;;;;;;;;;;6.80;98.60;;;;;;5021957;28;20756;-77
2023/01/10 03:52:00;;;;;;;;;;;6.80;98.60;;;;;;5018440;28;19929;-78
2023/01/10 03:54:28;;;;;;;;;;;6.80;98.60;;;;;;5020582;28;19965;-78
2023/01/10 03:56:55;;;;;;;;;;;6.80;98.60;;;;;;5020985;28;19959;-78
2023/01/10 03:59:22;;;;;;;;;;;6.70;98.60;;;;;;5022527;28;19929;-77
2023/01/10 04:01:49;;;;;;;;;;;6.70;98.60;;;;;;5019922;28;19937;-77
2023/01/10 04:04:15;;;;;;;;;;;6.70;98.70;;;;;;5021594;28;20550;-78
2023/01/10 04:06:42;;;;;;;;;;;6.70;98.70;;;;;;5019205;28;19936;-76
2023/01/10 04:09:08;;;;;;;;;;;6.70;98.60;;;;;;5021846;28;19928;-77
2023/01/10 04:11:36;;;;;;;;;;;6.70;98.70;;;;;;5019411;28;21205;-78
2023/01/10 04:14:03;;;;;;;;;;;6.70;98.70;;;;;;5023790;28;19929;-78
2023/01/10 04:16:30;;;;;;;;;;;6.70;98.70;;;;;;5019876;28;19933;-77
2023/01/10 04:18:56;;;;;;;;;;;6.60;98.70;;;;;;5023211;28;19937;-75
2023/01/10 04:21:23;;;;;;;;;;;6.60;98.70;;;;;;5023575;28;19976;-77
2023/01/10 04:23:49;;;;;;;;;;;6.60;98.70;;;;;;5022546;28;20620;-77
2023/01/10 04:26:16;;;;;;;;;;;6.60;98.70;;;;;;5017166;28;19925;-78
2023/01/10 04:28:44;;;;;;;;;;;6.60;98.70;;;;;;5015984;28;19971;-77
2023/01/10 04:31:10;;;;;;;;;;;6.60;98.70;;;;;;5017069;28;20414;-77
2023/01/10 04:33:37;;;;;;;;;;;6.50;98.70;;;;;;5020333;28;19967;-77
2023/01/10 04:36:04;;;;;;;;;;;6.50;98.70;;;;;;5019329;28;20051;-77
2023/01/10 04:38:31;;;;;;;;;;;6.50;98.80;;;;;;5020138;28;19929;-78
2023/01/10 04:40:58;;;;;;;;;;;6.50;98.80;;;;;;5016861;28;20526;-78
2023/01/10 04:43:25;;;;;;;;;;;6.60;98.90;;;;;;5017038;28;19933;-78
2023/01/10 04:45:53;;;;;;;;;;;6.50;98.90;;;;;;5016895;28;19940;-78
2023/01/10 04:48:19;;;;;;;;;;;6.50;98.90;;;;;;5016971;28;19933;-78
2023/01/10 04:50:48;;;;;;;;;;;6.50;98.90;;;;;;5021366;28;20287;-77
2023/01/10 04:53:15;;;;;;;;;;;6.50;98.90;;;;;;5021955;28;20452;-77
2023/01/10 04:55:42;;;;;;;;;;;6.50;99.00;;;;;;5017291;28;19944;-78
2023/01/10 04:58:08;;;;;;;;;;;6.50;99.00;;;;;;5018558;28;19932;-78
2023/01/10 05:00:35;;;;;;;;;;;6.50;99.00;;;;;;5021414;28;20039;-78
2023/01/10 05:03:03;;;;;;;;;;;6.50;99.00;;;;;;5017330;28;19936;-78
2023/01/10 05:05:29;;;;;;;;;;;6.50;99.00;;;;;;5020200;28;19944;-77
2023/01/10 05:07:56;;;;;;;;;;;6.50;99.00;;;;;;5020096;28;20939;-78
2023/01/10 05:10:22;;;;;;;;;;;6.50;99.00;;;;;;5017248;28;19933;-79
2023/01/10 05:12:49;;;;;;;;;;;6.50;99.00;;;;;;5019326;28;19949;-77
2023/01/10 05:15:15;;;;;;;;;;;6.50;98.90;;;;;;5016704;28;20587;-78
2023/01/10 05:17:42;;;;;;;;;;;6.50;98.90;;;;;;5016998;28;19936;-78
2023/01/10 05:20:12;;;;;;;;;;;6.50;98.90;;;;;;5019892;28;19936;-79
2023/01/10 05:22:38;;;;;;;;;;;6.50;98.90;;;;;;5021782;28;19929;-78
2023/01/10 05:25:05;;;;;;;;;;;6.50;99.00;;;;;;5015274;28;20322;-77
2023/01/10 05:27:32;;;;;;;;;;;6.50;99.00;;;;;;5019471;28;19933;-77
2023/01/10 05:29:59;;;;;;;;;;;6.40;98.90;;;;;;5012919;28;19933;-78
2023/01/10 05:32:28;;;;;;;;;;;6.50;98.90;;;;;;5017406;28;19929;-77
2023/01/10 05:34:54;;;;;;;;;;;6.50;98.90;;;;;;5014663;28;19995;-77
2023/01/10 05:37:22;;;;;;;;;;;6.40;98.90;;;;;;5019627;28;19936;-78
2023/01/10 05:39:50;;;;;;;;;;;6.40;98.90;;;;;;5016106;28;21378;-77
2023/01/10 05:42:17;;;;;;;;;;;6.40;98.90;;;;;;5013636;28;19930;-77
2023/01/10 05:44:43;;;;;;;;;;;6.40;98.90;;;;;;5014288;28;20003;-78
2023/01/10 05:47:10;;;;;;;;;;;6.40;98.80;;;;;;5018373;28;19936;-78
2023/01/10 05:49:37;;;;;;;;;;;6.40;98.80;;;;;;5017437;28;20391;-78
2023/01/10 05:52:03;;;;;;;;;;;6.40;98.80;;;;;;5019677;28;20525;-77
2023/01/10 05:54:31;;;;;;;;;;;6.40;98.80;;;;;;5017831;28;19929;-77
2023/01/10 05:56:58;;;;;;;;;;;6.40;98.70;;;;;;5014369;28;19944;-77
2023/01/10 05:59:24;;;;;;;;;;;6.40;98.70;;;;;;5017387;28;19936;-78
2023/01/10 06:01:51;;;;;;;;;;;6.40;99.10;;;;;;5016256;28;19929;-77
2023/01/10 06:04:18;;;;;;;;;;;6.40;98.80;;;;;;5013029;28;19929;-77
2023/01/10 06:06:44;;;;;;;;;;;6.40;98.70;;;;;;5015072;28;19936;-78
2023/01/10 06:09:11;;;;;;;;;;;6.40;98.70;;;;;;5017519;28;19976;-77
2023/01/10 06:11:39;;;;;;;;;;;6.40;98.70;;;;;;5018124;28;19992;-78
2023/01/10 06:14:06;;;;;;;;;;;6.40;98.70;;;;;;5018037;28;19941;-77
2023/01/10 06:16:33;;;;;;;;;;;6.40;98.70;;;;;;5017404;28;19960;-77
2023/01/10 06:18:59;;;;;;;;;;;6.40;98.60;;;;;;5013381;28;19936;-78
2023/01/10 06:21:26;;;;;;;;;;;6.40;98.60;;;;;;5015162;28;19952;-77
2023/01/10 06:23:52;;;;;;;;;;;6.30;98.60;;;;;;5016067;28;19929;-78
2023/01/10 06:26:19;;;;;;;;;;;6.40;98.60;;;;;;5012745;28;19929;-77
2023/01/10 06:28:47;;;;;;;;;;;6.40;98.60;;;;;;5020577;28;19933;-77
2023/01/10 06:31:14;;;;;;;;;;;6.40;98.60;;;;;;5020033;28;19932;-78
2023/01/10 06:33:42;;;;;;;;;;;6.30;98.60;;;;;;5024274;28;19929;-77
2023/01/10 06:36:09;;;;;;;;;;;6.30;98.50;;;;;;5024464;28;19984;-78
2023/01/10 06:38:35;;;;;;;;;;;6.40;98.50;;;;;;5021553;28;19933;-78
2023/01/10 06:41:11;;;;;;;;;;;6.30;98.50;;;;;;5025293;28;19940;-78
2023/01/10 06:43:38;;;;;;;;;;;6.40;98.90;;;;;;5021989;28;19929;-79
2023/01/10 06:46:08;;;;;;;;;;;6.30;98.50;;;;;;5023837;28;19940;-78
2023/01/10 06:48:35;;;;;;;;;;;6.30;98.50;;;;;;5017373;28;20342;-78
2023/01/10 06:51:01;;;;;;;;;;;6.30;98.60;;;;;;5019107;28;20005;-78
2023/01/10 06:53:28;;;;;;;;;;;6.30;98.60;;;;;;5014074;28;20562;-80
2023/01/10 06:55:54;;;;;;;;;;;6.30;98.60;;;;;;5018923;28;20390;-79
2023/01/10 06:58:21;;;;;;;;;;;6.30;98.60;;;;;;5019200;28;20314;-78
2023/01/10 07:00:48;;;;;;;;;;;6.30;98.60;;;;;;5019118;28;20398;-75
2023/01/10 07:03:15;;;;;;;;;;;6.30;98.60;;;;;;5022810;28;19987;-75
2023/01/10 07:05:42;;;;;;;;;;;6.30;98.60;;;;;;5021217;28;20592;-75
2023/01/10 07:08:08;;;;;;;;;;;6.30;98.60;;;;;;5023455;28;19933;-75
2023/01/10 07:10:35;;;;;;;;;;;6.30;98.60;;;;;;5024009;28;19936;-75
2023/01/10 07:13:01;;;;;;;;;;;6.30;98.60;;;;;;5023278;28;20047;-75
2023/01/10 07:15:29;;;;;;;;;;;6.30;98.60;;;;;;5021963;28;19937;-75
2023/01/10 07:17:56;;;;;;;;;;;6.30;98.60;;;;;;5024939;28;20319;-74
2023/01/10 07:20:23;;;;;;;;;;;6.30;98.60;;;;;;5021568;28;19936;-74
2023/01/10 07:22:53;;;;;;;;;;;6.30;99.00;;;;;;5026320;28;19948;-75
2023/01/10 07:25:19;;;;;;;;;;;6.30;98.70;;;;;;5025799;28;20433;-75
2023/01/10 07:27:46;;;;;;;;;;;6.30;98.60;;;;;;5025727;28;19936;-75
2023/01/10 07:30:12;;;;;;;;;;;6.30;98.60;;;;;;5029273;28;19933;-75
2023/01/10 07:32:39;;;;;;;;;;;6.30;98.60;;;;;;5022014;28;19936;-75
2023/01/10 07:35:06;;;;;;;;;;;6.30;98.60;;;;;;5023268;28;19940;-75
2023/01/10 07:37:34;;;;;;;;;;;6.30;98.60;;;;;;5025358;28;19933;-74
2023/01/10 07:40:00;;;;;;;;;;;6.20;98.60;;;;;;5022770;28;19964;-75
2023/01/10 07:42:27;;;;;;;;;;;6.30;98.60;;;;;;5024518;28;20595;-75
2023/01/10 07:44:53;;;;;;;;;;;6.20;98.60;;;;;;5018709;28;19940;-75
2023/01/10 07:47:20;;;;;;;;;;;6.20;98.60;;;;;;5019278;28;19936;-75
2023/01/10 07:49:46;;;;;;;;;;;6.30;98.70;;;;;;5022872;28;19952;-75
2023/01/10 07:52:13;;;;;;;;;;;6.20;98.60;;;;;;5021717;28;20288;-74
2023/01/10 07:54:41;;;;;;;;;;;6.20;98.70;;;;;;5018736;28;19929;-74
2023/01/10 07:57:07;;;;;;;;;;;6.20;98.70;;;;;;5017743;28;19929;-74
2023/01/10 07:59:34;;;;;;;;;;;6.20;98.70;;;;;;5019973;28;19956;-75
2023/01/10 08:02:00;;;;;;;;;;;6.20;98.70;;;;;;5020700;28;19940;-75
2023/01/10 08:04:27;;;;;;;;;;;6.20;98.70;;;;;;5016485;28;20583;-74
2023/01/10 08:06:54;;;;;;;;;;;6.20;98.70;;;;;;5021939;28;19932;-75
2023/01/10 08:09:20;;;;;;;;;;;6.20;98.70;;;;;;5020829;28;19929;-75
2023/01/10 08:11:48;;;;;;;;;;;6.20;98.70;;;;;;5023058;28;19936;-74
2023/01/10 08:14:15;;;;;;;;;;;6.20;98.80;;;;;;5020913;28;20355;-74
2023/01/10 08:16:41;;;;;;;;;;;6.20;98.80;;;;;;5019935;28;20675;-74
2023/01/10 08:19:08;;;;;;;;;;;6.20;98.80;;;;;;5024397;28;19933;-74
2023/01/10 08:21:34;;;;;;;;;;;6.20;98.80;;;;;;5025478;28;20465;-74
2023/01/10 08:24:01;;;;;;;;;;;6.20;98.80;;;;;;5015023;28;19959;-74
2023/01/10 08:26:27;;;;;;;;;;;6.20;98.80;;;;;;5021277;28;19936;-74
2023/01/10 08:28:55;;;;;;;;;;;6.20;98.80;;;;;;5018156;28;19929;-73
2023/01/10 08:31:22;;;;;;;;;;;6.20;98.80;;;;;;5016770;28;19933;-74
2023/01/10 08:33:48;;;;;;;;;;;6.20;98.80;;;;;;5021766;28;19933;-74
2023/01/10 08:36:16;;;;;;;;;;;6.20;98.80;;;;;;5019829;28;19929;-74
2023/01/10 08:38:43;;;;;;;;;;;6.20;98.80;;;;;;5012374;28;20012;-74
2023/01/10 08:41:09;;;;;;;;;;;6.20;98.80;;;;;;5018043;28;20458;-74
2023/01/10 08:43:36;;;;;;;;;;;6.20;98.80;;;;;;5018674;28;19987;-75
2023/01/10 08:46:04;;;;;;;;;;;6.20;98.80;;;;;;5017344;28;19936;-74
2023/01/10 08:48:31;;;;;;;;;;;6.20;98.80;;;;;;5016379;28;19940;-75
2023/01/10 08:50:58;;;;;;;;;;;6.20;98.80;;;;;;5017868;28;19929;-74
2023/01/10 08:53:30;;;;;;;;;;;6.10;98.80;;;;;;5015558;28;20415;-74
2023/01/10 08:55:56;;;;;;;;;;;6.20;98.90;;;;;;5017721;28;19941;-75
2023/01/10 08:58:23;;;;;;;;;;;6.20;98.90;;;;;;5017543;28;19929;-75
2023/01/10 09:00:50;;;;;;;;;;;6.20;98.90;;;;;;5014352;28;19929;-75
2023/01/10 09:03:18;;;;;;;;;;;6.10;98.80;;;;;;5017193;28;19929;-74
2023/01/10 09:05:44;;;;;;;;;;;6.10;98.80;;;;;;5018402;28;19929;-75
2023/01/10 09:08:11;;;;;;;;;;;6.20;98.90;;;;;;5018557;28;19929;-75
2023/01/10 09:10:37;;;;;;;;;;;6.20;98.80;;;;;;5021971;28;19982;-74
2023/01/10 09:13:04;;;;;;;;;;;6.20;98.90;;;;;;5022958;28;19933;-76
2023/01/10 09:15:32;;;;;;;;;;;6.20;98.90;;;;;;5020819;28;20024;-75
2023/01/10 09:18:00;;;;;;;;;;;6.20;99.20;;;;;;5019663;28;20445;-74
2023/01/10 09:20:28;;;;;;;;;;;6.20;98.90;;;;;;5019323;28;19956;-74
2023/01/10 09:22:56;;;;;;;;;;;6.20;98.90;;;;;;5012751;28;19933;-74
2023/01/10 09:25:23;;;;;;;;;;;6.20;98.90;;;;;;5014126;28;19976;-76
2023/01/10 09:27:55;;;;;;;;;;;6.20;98.90;;;;;;5021523;28;19933;-75
2023/01/10 09:30:22;;;;;;;;;;;6.20;98.80;;;;;;5020976;28;20474;-75
2023/01/10 09:32:49;;;;;;;;;;;6.20;98.80;;;;;;5022344;28;19960;-75
2023/01/10 09:35:16;;;;;;;;;;;6.20;98.80;;;;;;5024920;28;19940;-75
2023/01/10 09:37:43;;;;;;;;;;;6.20;98.80;;;;;;5021447;28;19936;-75
2023/01/10 09:40:14;;;;;;;;;;;6.20;98.80;;;;;;5020270;28;19929;-75
2023/01/10 09:42:48;;;;;;;;;;;6.20;98.80;;;;;;5022156;28;19929;-74
2023/01/10 09:45:16;;;;;;;;;;;6.20;98.70;;;;;;5013430;28;19983;-75
2023/01/10 09:47:49;;;;;;;;;;;6.20;98.70;;;;;;5018887;28;19986;-74
2023/01/10 09:50:19;;;;;;;;;;;6.30;98.80;;;;;;5021135;28;19933;-74
2023/01/10 09:52:50;;;;;;;;;;;6.30;98.80;;;;;;5021555;28;19933;-75
2023/01/10 09:55:18;;;;;;;;;;;6.30;98.70;;;;;;5020688;28;19964;-75
2023/01/10 09:57:45;;;;;;;;;;;6.20;98.70;;;;;;5018168;28;20323;-72
2023/01/10 10:00:15;;;;;;;;;;;6.30;98.70;;;;;;5014322;28;19937;-75
2023/01/10 10:02:45;;;;;;;;;;;6.30;98.70;;;;;;5014066;28;19933;-81
2023/01/10 10:05:14;;;;;;;;;;;6.30;98.70;;;;;;5018464;28;20307;-83
2023/01/10 10:07:41;;;;;;;;;;;6.30;98.70;;;;;;5015812;28;21711;-83
2023/01/10 10:10:22;;;;;;;;;;;6.30;98.70;;;;;;5014663;28;20055;-85
2023/01/10 10:12:52;;;;;;;;;;;6.30;98.70;;;;;;5007798;28;20003;-81
2023/01/10 10:15:21;;;;;;;;;;;6.30;98.70;;;;;;5013771;28;19945;-82
2023/01/10 10:17:52;;;;;;;;;;;6.40;98.60;;;;;;5012960;28;19935;-81
2023/01/10 10:20:22;;;;;;;;;;;6.40;98.60;;;;;;5012881;28;20362;-82
2023/01/10 10:22:54;;;;;;;;;;;6.40;98.60;;;;;;5017741;28;19994;-80
2023/01/10 10:25:31;;;;;;;;;;;6.40;98.60;;;;;;5017819;28;20016;-84
2023/01/10 10:28:06;;;;;;;;;;;6.40;98.50;;;;;;5015804;28;19925;-79
2023/01/10 10:30:40;;;;;;;;;;;6.40;98.50;;;;;;5017891;28;19933;-84
2023/01/10 10:33:16;;;;;;;;;;;6.40;98.40;;;;;;5017553;28;19933;-83
2023/01/10 10:35:45;;;;;;;;;;;6.50;98.40;;;;;;5019160;28;19929;-83
2023/01/10 10:38:13;;;;;;;;;;;6.50;98.30;;;;;;5017138;28;19936;-82
2023/01/10 10:40:43;;;;;;;;;;;6.50;98.30;;;;;;5021764;28;20294;-85
2023/01/10 10:43:20;;;;;;;;;;;6.50;98.20;;;;;;5025211;28;20383;-82
2023/01/10 10:45:47;;;;;;;;;;;6.50;98.20;;;;;;5023909;28;19933;-83
2023/01/10 10:48:16;;;;;;;;;;;6.60;98.20;;;;;;5020231;28;20391;-83
2023/01/10 10:50:48;;;;;;;;;;;6.60;98.10;;;;;;5027548;28;19930;-83
2023/01/10 10:53:15;;;;;;;;;;;6.60;98.00;;;;;;5027234;28;19936;-84
2023/01/10 10:55:43;;;;;;;;;;;6.60;98.00;;;;;;5028487;28;20654;-81
2023/01/10 10:58:10;;;;;;;;;;;6.60;97.90;;;;;;5025957;28;20292;-84
2023/01/10 11:00:36;;;;;;;;;;;6.60;97.90;;;;;;5021333;28;19972;-85
2023/01/10 11:03:06;;;;;;;;;;;6.60;97.90;;;;;;5022192;28;19937;-83
2023/01/10 11:05:35;;;;;;;;;;;6.60;97.90;;;;;;5020648;28;19979;-85
2023/01/10 11:08:05;;;;;;;;;;;6.70;97.90;;;;;;5022238;28;19960;-83
2023/01/10 11:10:35;;;;;;;;;;;6.70;97.80;;;;;;5017291;28;20386;-83
2023/01/10 11:13:04;;;;;;;;;;;6.70;97.70;;;;;;5019921;28;19996;-84
2023/01/10 11:15:35;;;;;;;;;;;6.70;97.70;;;;;;5020558;28;20497;-84
2023/01/10 11:18:04;;;;;;;;;;;6.70;97.60;;;;;;5018117;28;20634;-83
2023/01/10 11:20:31;;;;;;;;;;;6.80;97.50;;;;;;5023093;28;19994;-81
2023/01/10 11:22:58;;;;;;;;;;;6.80;97.40;;;;;;5022972;28;19945;-85
2023/01/10 11:25:24;;;;;;;;;;;6.80;97.30;;;;;;5021598;28;19968;-84
2023/01/10 11:27:53;;;;;;;;;;;6.80;97.20;;;;;;5025013;28;20356;-83
2023/01/10 11:30:22;;;;;;;;;;;6.80;97.10;;;;;;5015182;28;19924;-84
2023/01/10 11:32:51;;;;;;;;;;;6.80;96.90;;;;;;5016638;28;19929;-83
2023/01/10 11:35:20;;;;;;;;;;;6.80;96.80;;;;;;5021434;28;19933;-84
2023/01/10 11:37:58;;;;;;;;;;;6.80;97.10;;;;;;5019008;28;19933;-84
2023/01/10 11:40:25;;;;;;;;;;;6.90;96.80;;;;;;5021640;28;19933;-83
2023/01/10 11:42:54;;;;;;;;;;;6.90;96.80;;;;;;5018241;28;19937;-83
2023/01/10 11:45:23;;;;;;;;;;;6.90;96.80;;;;;;5018341;28;19936;-83
2023/01/10 11:47:53;;;;;;;;;;;6.90;96.70;;;;;;5016800;28;20414;-85
2023/01/10 11:50:21;;;;;;;;;;;7.00;96.60;;;;;;5017136;28;19960;-85
2023/01/10 11:52:48;;;;;;;;;;;7.00;96.60;;;;;;5016307;28;19937;-83
2023/01/10 11:55:17;;;;;;;;;;;7.00;96.50;;;;;;5018149;28;19932;-85
2023/01/10 11:57:44;;;;;;;;;;;7.00;96.50;;;;;;5021011;28;19932;-82
2023/01/10 12:00:11;;;;;;;;;;;7.20;95.80;;;;;;5021942;28;19933;-83
2023/01/10 12:02:41;;;;;;;;;;;7.20;95.40;;;;;;5021947;28;19925;-82
2023/01/10 12:05:09;;;;;;;;;;;7.30;95.40;;;;;;5019316;28;19936;-82
2023/01/10 12:07:51;;;;;;;;;;;7.30;95.40;;;;;;5017610;28;19930;-81
2023/01/10 12:10:19;;;;;;;;;;;7.20;95.30;;;;;;5022180;28;20389;-83
2023/01/10 12:12:53;;;;;;;;;;;7.30;95.40;;;;;;5019265;28;19935;-82
2023/01/10 12:15:24;;;;;;;;;;;7.30;95.30;;;;;;5019536;28;19996;-82
2023/01/10 12:17:54;;;;;;;;;;;7.30;95.30;;;;;;5025070;28;19929;-82
2023/01/10 12:20:21;;;;;;;;;;;7.30;95.40;;;;;;5017143;28;20040;-83
2023/01/10 12:22:49;;;;;;;;;;;7.40;95.20;;;;;;5025397;28;20055;-83
2023/01/10 12:25:19;;;;;;;;;;;7.40;95.20;;;;;;5025412;28;20059;-83
2023/01/10 12:27:49;;;;;;;;;;;7.40;95.20;;;;;;5025203;28;19933;-83
2023/01/10 12:30:17;;;;;;;;;;;7.40;95.20;;;;;;5022021;28;20024;-83
2023/01/10 12:32:46;;;;;;;;;;;7.40;95.00;;;;;;5026303;28;19929;-82
2023/01/10 12:35:21;;;;;;;;;;;7.40;94.90;;;;;;5020416;28;19928;-83
2023/01/10 12:37:50;;;;;;;;;;;7.40;94.80;;;;;;5020469;28;20373;-82
2023/01/10 12:40:20;;;;;;;;;;;7.50;94.80;;;;;;5023508;28;19933;-80
2023/01/10 12:45:39;;;;;;;;;;;7.50;94.60;;;;;;5014993;28;19932;-82
2023/01/10 12:48:12;;;;;;;;;;;7.60;94.50;;;;;;5023200;28;19936;-82
2023/01/10 12:50:41;;;;;;;;;;;7.60;94.40;;;;;;5025728;28;19987;-82
2023/01/10 12:53:11;;;;;;;;;;;7.60;94.00;;;;;;5027091;28;20431;-82
2023/01/10 12:55:40;;;;;;;;;;;7.60;94.00;;;;;;5028616;28;19984;-81
2023/01/10 12:58:07;;;;;;;;;;;7.70;94.10;;;;;;5018006;28;20016;-80
2023/01/10 13:00:36;;;;;;;;;;;7.70;93.90;;;;;;5019761;28;19933;-81
2023/01/10 13:03:06;;;;;;;;;;;7.70;93.70;;;;;;5020080;28;19932;-81
2023/01/10 13:05:32;;;;;;;;;;;7.70;93.60;;;;;;5018106;28;20299;-83
2023/01/10 13:08:07;;;;;;;;;;;7.80;93.60;;;;;;5013107;28;19941;-84
2023/01/10 13:10:35;;;;;;;;;;;7.70;93.50;;;;;;5011608;28;19933;-82
2023/01/10 13:13:04;;;;;;;;;;;7.80;93.60;;;;;;5018273;28;19936;-79
2023/01/10 13:15:32;;;;;;;;;;;7.70;93.60;;;;;;5018513;28;20276;-81
2023/01/10 13:18:01;;;;;;;;;;;7.80;93.70;;;;;;5017119;28;19936;-81
2023/01/10 13:20:37;;;;;;;;;;;7.70;93.60;;;;;;5020019;28;20367;-82
2023/01/10 13:23:15;;;;;;;;;;;7.70;93.30;;;;;;5017464;28;19973;-81
2023/01/10 13:25:53;;;;;;;;;;;7.70;93.50;;;;;;5024236;28;19929;-81
2023/01/10 13:28:22;;;;;;;;;;;7.70;93.50;;;;;;5018682;28;19979;-82
2023/01/10 13:30:51;;;;;;;;;;;7.70;93.50;;;;;;5024740;28;19936;-81
2023/01/10 13:33:20;;;;;;;;;;;7.60;93.60;;;;;;5020887;28;19937;-81
2023/01/10 13:35:48;;;;;;;;;;;7.60;93.80;;;;;;5021260;28;19936;-83
2023/01/10 13:38:20;;;;;;;;;;;7.60;93.90;;;;;;5019993;28;19983;-82
2023/01/10 13:41:00;;;;;;;;;;;7.60;93.90;;;;;;5020447;28;19932;-81
2023/01/10 13:43:33;;;;;;;;;;;7.60;93.80;;;;;;5026612;28;19995;-82
2023/01/10 13:46:18;;;;;;;;;;;7.60;94.10;;;;;;5023822;28;19928;-81
2023/01/10 13:49:06;;;;;;;;;;;7.60;93.60;;;;;;5022723;28;19972;-82
2023/01/10 13:51:35;;;;;;;;;;;7.70;93.40;;;;;;5025567;28;19983;-81
2023/01/10 13:54:03;;;;;;;;;;;7.70;93.00;;;;;;5021542;28;19979;-81
2023/01/10 13:56:36;;;;;;;;;;;7.70;93.00;;;;;;5018289;28;19973;-82
2023/01/10 14:04:37;;;;;;;;;;;7.80;92.60;;;;;;5020775;28;20002;-81
2023/01/10 14:07:06;;;;;;;;;;;7.80;92.60;;;;;;5021955;28;19933;-81
2023/01/10 14:09:39;;;;;;;;;;;7.80;92.50;;;;;;5023304;28;20048;-82
2023/01/10 14:12:08;;;;;;;;;;;7.80;92.30;;;;;;5020183;28;19980;-83
2023/01/10 14:14:38;;;;;;;;;;;7.80;92.20;;;;;;5016559;28;19933;-81
2023/01/10 14:17:13;;;;;;;;;;;7.80;92.10;;;;;;5020048;28;19936;-82
2023/01/10 14:19:41;;;;;;;;;;;7.90;92.00;;;;;;5016114;28;20017;-82
2023/01/10 14:22:22;;;;;;;;;;;7.80;91.90;;;;;;5023054;28;19925;-81
2023/01/10 14:24:52;;;;;;;;;;;7.80;91.80;;;;;;5017764;28;19932;-82
2023/01/10 14:27:19;;;;;;;;;;;7.80;92.10;;;;;;5019942;28;19996;-81
2023/01/10 14:29:49;;;;;;;;;;;7.80;91.90;;;;;;5014051;28;19972;-82
2023/01/10 14:32:19;;;;;;;;;;;7.80;91.80;;;;;;5012454;28;19929;-82
2023/01/10 14:34:48;;;;;;;;;;;7.80;91.70;;;;;;5016340;28;19952;-82
2023/01/10 14:37:16;;;;;;;;;;;7.70;91.80;;;;;;5016952;28;19934;-82
2023/01/10 14:39:43;;;;;;;;;;;7.70;92.00;;;;;;5019932;28;19967;-83
2023/01/10 14:42:13;;;;;;;;;;;7.80;92.00;;;;;;5018973;28;20338;-82
2023/01/10 14:44:44;;;;;;;;;;;7.70;92.10;;;;;;5026239;28;19995;-83
2023/01/10 14:47:26;;;;;;;;;;;7.70;92.20;;;;;;5015294;28;20413;-83
2023/01/10 14:49:54;;;;;;;;;;;7.70;92.20;;;;;;5024583;28;19929;-82
2023/01/10 14:52:22;;;;;;;;;;;7.70;92.20;;;;;;5021244;28;19929;-82
2023/01/10 14:54:54;;;;;;;;;;;7.70;92.20;;;;;;5020485;28;20032;-82